sensor_id;sensor_type;location;lat;lon;timestamp;temperature;humidity
4725;DHT22;2376;53.544;10.226;2022-08-19T00:01:29;21.00;99.90
4725;DHT22;2376;53.544;10.226;2022-08-19T00:03:57;20.90;99.90
4725;DHT22;2376;53.544;10.226;2022-08-19T00:06:26;20.90;99.90
4725;DHT22;2376;53.544;10.226;2022-08-19T00:08:53;20.90;99.90
4725;DHT22;2376;53.544;10.226;2022-08-19T00:11:21;20.90;99.90
4725;DHT22;2376;53.544;10.226;2022-08-19T00:13:48;20.90;99.90
4725;DHT22;2376;53.544;10.226;2022-08-19T00:16:15;20.80;99.90
4725;DHT22;2376;53.544;10.226;2022-08-19T00:18:43;20.70;99.90
4725;DHT22;2376;53.544;10.226;2022-08-19T00:21:10;20.70;99.90
4725;DHT22;2376;53.544;10.226;2022-08-19T00:23:38;20.70;99.90
4725;DHT22;2376;53.544;10.226;2022-08-19T00:26:07;20.70;99.90
4725;DHT22;2376;53.544;10.226;2022-08-19T00:28:36;20.70;99.90
4725;DHT22;2376;53.544;10.226;2022-08-19T00:31:08;20.80;99.90
4725;DHT22;2376;53.544;10.226;2022-08-19T00:33:36;20.80;99.90
4725;DHT22;2376;53.544;10.226;2022-08-19T00:36:05;20.90;99.90
4725;DHT22;2376;53.544;10.226;2022-08-19T00:38:33;21.00;99.90
4725;DHT22;2376;53.544;10.226;2022-08-19T00:41:01;21.00;99.90
4725;DHT22;2376;53.544;10.226;2022-08-19T00:43:28;21.00;99.90
4725;DHT22;2376;53.544;10.226;2022-08-19T00:45:55;21.00;99.90
4725;DHT22;2376;53.544;10.226;2022-08-19T00:48:22;20.90;99.90
4725;DHT22;2376;53.544;10.226;2022-08-19T00:50:51;20.80;99.90
4725;DHT22;2376;53.544;10.226;2022-08-19T00:53:24;20.80;99.90
4725;DHT22;2376;53.544;10.226;2022-08-19T00:55:55;20.80;99.90
4725;DHT22;2376;53.544;10.226;2022-08-19T00:58:30;20.70;99.90
4725;DHT22;2376;53.544;10.226;2022-08-19T01:00:57;20.70;99.90
4725;DHT22;2376;53.544;10.226;2022-08-19T01:03:24;20.70;99.90
4725;DHT22;2376;53.544;10.226;2022-08-19T01:05:52;20.70;99.90
4725;DHT22;2376;53.544;10.226;2022-08-19T01:08:21;20.60;99.90
4725;DHT22;2376;53.544;10.226;2022-08-19T01:10:51;20.70;99.90
4725;DHT22;2376;53.544;10.226;2022-08-19T01:13:21;20.70;99.90
4725;DHT22;2376;53.544;10.226;2022-08-19T01:15:53;20.70;99.90
4725;DHT22;2376;53.544;10.226;2022-08-19T01:18:21;20.80;99.90
4725;DHT22;2376;53.544;10.226;2022-08-19T01:20:51;20.80;99.90
4725;DHT22;2376;53.544;10.226;2022-08-19T01:23:22;20.80;99.90
4725;DHT22;2376;53.544;10.226;2022-08-19T01:26:09;20.80;99.90
4725;DHT22;2376;53.544;10.226;2022-08-19T01:28:37;20.70;99.90
4725;DHT22;2376;53.544;10.226;2022-08-19T01:31:04;20.80;99.90
4725;DHT22;2376;53.544;10.226;2022-08-19T01:33:31;20.80;99.90
4725;DHT22;2376;53.544;10.226;2022-08-19T01:36:05;20.80;99.90
4725;DHT22;2376;53.544;10.226;2022-08-19T01:38:35;20.80;99.90
4725;DHT22;2376;53.544;10.226;2022-08-19T01:41:03;20.80;99.90
4725;DHT22;2376;53.544;10.226;2022-08-19T01:43:30;20.80;99.90
4725;DHT22;2376;53.544;10.226;2022-08-19T01:45:57;20.80;99.90
4725;DHT22;2376;53.544;10.226;2022-08-19T01:48:24;20.80;99.90
4725;DHT22;2376;53.544;10.226;2022-08-19T01:50:50;20.70;99.90
4725;DHT22;2376;53.544;10.226;2022-08-19T01:53:17;20.70;99.90
4725;DHT22;2376;53.544;10.226;2022-08-19T01:55:45;20.70;99.90
4725;DHT22;2376;53.544;10.226;2022-08-19T01:58:18;20.70;99.90
4725;DHT22;2376;53.544;10.226;2022-08-19T02:00:48;20.70;99.90
4725;DHT22;2376;53.544;10.226;2022-08-19T02:03:15;20.70;99.90
4725;DHT22;2376;53.544;10.226;2022-08-19T02:05:43;20.70;99.90
4725;DHT22;2376;53.544;10.226;2022-08-19T02:08:11;20.70;99.90
4725;DHT22;2376;53.544;10.226;2022-08-19T02:10:40;20.70;99.90
4725;DHT22;2376;53.544;10.226;2022-08-19T02:13:09;20.70;99.90
4725;DHT22;2376;53.544;10.226;2022-08-19T02:15:37;20.60;99.90
4725;DHT22;2376;53.544;10.226;2022-08-19T02:18:04;20.60;99.90
4725;DHT22;2376;53.544;10.226;2022-08-19T02:20:31;20.60;99.90
4725;DHT22;2376;53.544;10.226;2022-08-19T02:22:57;20.50;99.90
4725;DHT22;2376;53.544;10.226;2022-08-19T02:25:27;20.50;99.90
4725;DHT22;2376;53.544;10.226;2022-08-19T02:27:53;20.50;99.90
4725;DHT22;2376;53.544;10.226;2022-08-19T02:30:22;20.50;99.90
4725;DHT22;2376;53.544;10.226;2022-08-19T02:32:50;20.60;99.90
4725;DHT22;2376;53.544;10.226;2022-08-19T02:35:18;20.60;99.90
4725;DHT22;2376;53.544;10.226;2022-08-19T02:37:44;20.50;99.90
4725;DHT22;2376;53.544;10.226;2022-08-19T02:40:30;20.50;99.90
4725;DHT22;2376;53.544;10.226;2022-08-19T02:42:59;20.60;99.90
4725;DHT22;2376;53.544;10.226;2022-08-19T02:45:30;20.60;99.90
4725;DHT22;2376;53.544;10.226;2022-08-19T02:47:57;20.50;99.90
4725;DHT22;2376;53.544;10.226;2022-08-19T02:50:24;20.40;99.90
4725;DHT22;2376;53.544;10.226;2022-08-19T02:52:51;20.40;99.90
4725;DHT22;2376;53.544;10.226;2022-08-19T02:55:18;20.40;99.90
4725;DHT22;2376;53.544;10.226;2022-08-19T02:57:46;20.40;99.90
4725;DHT22;2376;53.544;10.226;2022-08-19T03:00:15;20.40;99.90
4725;DHT22;2376;53.544;10.226;2022-08-19T03:02:43;20.40;99.90
4725;DHT22;2376;53.544;10.226;2022-08-19T03:05:11;20.40;99.90
4725;DHT22;2376;53.544;10.226;2022-08-19T03:07:38;20.40;99.90
4725;DHT22;2376;53.544;10.226;2022-08-19T03:10:06;20.40;99.90
4725;DHT22;2376;53.544;10.226;2022-08-19T03:12:35;20.40;99.90
4725;DHT22;2376;53.544;10.226;2022-08-19T03:15:08;20.40;99.90
4725;DHT22;2376;53.544;10.226;2022-08-19T03:17:35;20.40;99.90
4725;DHT22;2376;53.544;10.226;2022-08-19T03:20:04;20.40;99.90
4725;DHT22;2376;53.544;10.226;2022-08-19T03:22:32;20.40;99.90
4725;DHT22;2376;53.544;10.226;2022-08-19T03:24:58;20.40;99.90
4725;DHT22;2376;53.544;10.226;2022-08-19T03:27:25;20.30;99.90
4725;DHT22;2376;53.544;10.226;2022-08-19T03:29:55;20.30;99.90
4725;DHT22;2376;53.544;10.226;2022-08-19T03:32:22;20.40;99.90
4725;DHT22;2376;53.544;10.226;2022-08-19T03:34:49;20.30;99.90
4725;DHT22;2376;53.544;10.226;2022-08-19T03:37:17;20.40;99.90
4725;DHT22;2376;53.544;10.226;2022-08-19T03:39:44;20.40;99.90
4725;DHT22;2376;53.544;10.226;2022-08-19T03:42:11;20.40;99.90
4725;DHT22;2376;53.544;10.226;2022-08-19T03:44:38;20.50;99.90
4725;DHT22;2376;53.544;10.226;2022-08-19T03:47:07;20.40;99.90
4725;DHT22;2376;53.544;10.226;2022-08-19T03:49:34;20.40;99.90
4725;DHT22;2376;53.544;10.226;2022-08-19T03:52:02;20.30;99.90
4725;DHT22;2376;53.544;10.226;2022-08-19T03:54:34;20.40;99.90
4725;DHT22;2376;53.544;10.226;2022-08-19T03:57:03;20.40;99.90
4725;DHT22;2376;53.544;10.226;2022-08-19T03:59:33;20.40;99.90
4725;DHT22;2376;53.544;10.226;2022-08-19T04:02:03;20.40;99.90
4725;DHT22;2376;53.544;10.226;2022-08-19T04:04:32;20.40;99.90
4725;DHT22;2376;53.544;10.226;2022-08-19T04:06:59;20.40;99.90
4725;DHT22;2376;53.544;10.226;2022-08-19T04:09:26;20.20;99.90
4725;DHT22;2376;53.544;10.226;2022-08-19T04:11:55;20.00;99.90
4725;DHT22;2376;53.544;10.226;2022-08-19T04:14:25;19.90;99.90
4725;DHT22;2376;53.544;10.226;2022-08-19T04:16:53;19.90;99.90
4725;DHT22;2376;53.544;10.226;2022-08-19T04:19:20;20.00;99.90
4725;DHT22;2376;53.544;10.226;2022-08-19T04:21:50;20.00;99.90
4725;DHT22;2376;53.544;10.226;2022-08-19T04:24:18;20.10;99.90
4725;DHT22;2376;53.544;10.226;2022-08-19T04:26:46;20.20;99.90
4725;DHT22;2376;53.544;10.226;2022-08-19T04:29:17;20.10;99.90
4725;DHT22;2376;53.544;10.226;2022-08-19T04:31:45;20.10;99.90
4725;DHT22;2376;53.544;10.226;2022-08-19T04:34:14;20.20;99.90
4725;DHT22;2376;53.544;10.226;2022-08-19T04:36:43;20.20;99.90
4725;DHT22;2376;53.544;10.226;2022-08-19T04:39:14;20.10;99.90
4725;DHT22;2376;53.544;10.226;2022-08-19T04:41:41;20.10;99.90
4725;DHT22;2376;53.544;10.226;2022-08-19T04:44:27;20.10;99.90
4725;DHT22;2376;53.544;10.226;2022-08-19T04:46:57;20.10;99.90
4725;DHT22;2376;53.544;10.226;2022-08-19T04:49:27;20.10;99.90
4725;DHT22;2376;53.544;10.226;2022-08-19T04:51:55;20.10;99.90
4725;DHT22;2376;53.544;10.226;2022-08-19T04:54:23;20.10;99.90
4725;DHT22;2376;53.544;10.226;2022-08-19T04:56:51;20.10;99.90
4725;DHT22;2376;53.544;10.226;2022-08-19T04:59:19;20.10;99.90
4725;DHT22;2376;53.544;10.226;2022-08-19T05:01:49;20.10;99.90
4725;DHT22;2376;53.544;10.226;2022-08-19T05:04:18;20.20;99.90
4725;DHT22;2376;53.544;10.226;2022-08-19T05:06:46;20.20;99.90
4725;DHT22;2376;53.544;10.226;2022-08-19T05:09:15;20.20;99.90
4725;DHT22;2376;53.544;10.226;2022-08-19T05:11:43;20.20;99.90
4725;DHT22;2376;53.544;10.226;2022-08-19T05:14:12;20.30;99.90
4725;DHT22;2376;53.544;10.226;2022-08-19T05:16:39;20.20;99.90
4725;DHT22;2376;53.544;10.226;2022-08-19T05:19:08;20.20;99.90
4725;DHT22;2376;53.544;10.226;2022-08-19T05:21:53;20.10;99.90
4725;DHT22;2376;53.544;10.226;2022-08-19T05:24:38;20.10;99.90
4725;DHT22;2376;53.544;10.226;2022-08-19T05:27:05;20.00;99.90
4725;DHT22;2376;53.544;10.226;2022-08-19T05:29:32;20.00;99.90
4725;DHT22;2376;53.544;10.226;2022-08-19T05:32:01;20.00;99.90
4725;DHT22;2376;53.544;10.226;2022-08-19T05:34:34;19.80;99.90
4725;DHT22;2376;53.544;10.226;2022-08-19T05:37:02;19.70;99.90
4725;DHT22;2376;53.544;10.226;2022-08-19T05:39:32;19.80;99.90
4725;DHT22;2376;53.544;10.226;2022-08-19T05:42:05;19.80;99.90
4725;DHT22;2376;53.544;10.226;2022-08-19T05:44:36;19.80;99.90
4725;DHT22;2376;53.544;10.226;2022-08-19T05:47:04;19.80;99.90
4725;DHT22;2376;53.544;10.226;2022-08-19T05:49:37;19.80;99.90
4725;DHT22;2376;53.544;10.226;2022-08-19T05:52:06;19.80;99.90
4725;DHT22;2376;53.544;10.226;2022-08-19T05:54:36;19.80;99.90
4725;DHT22;2376;53.544;10.226;2022-08-19T05:57:05;19.70;99.90
4725;DHT22;2376;53.544;10.226;2022-08-19T05:59:32;19.70;99.90
4725;DHT22;2376;53.544;10.226;2022-08-19T06:02:01;19.70;99.90
4725;DHT22;2376;53.544;10.226;2022-08-19T06:04:32;19.70;99.90
4725;DHT22;2376;53.544;10.226;2022-08-19T06:07:00;19.80;99.90
4725;DHT22;2376;53.544;10.226;2022-08-19T06:09:29;19.80;99.90
4725;DHT22;2376;53.544;10.226;2022-08-19T06:11:58;19.90;99.90
4725;DHT22;2376;53.544;10.226;2022-08-19T06:14:29;19.90;99.90
4725;DHT22;2376;53.544;10.226;2022-08-19T06:16:57;19.90;99.90
4725;DHT22;2376;53.544;10.226;2022-08-19T06:19:26;20.00;99.90
4725;DHT22;2376;53.544;10.226;2022-08-19T06:21:56;20.00;99.90
4725;DHT22;2376;53.544;10.226;2022-08-19T06:24:26;20.00;99.90
4725;DHT22;2376;53.544;10.226;2022-08-19T06:26:55;20.00;99.90
4725;DHT22;2376;53.544;10.226;2022-08-19T06:29:24;20.10;99.90
4725;DHT22;2376;53.544;10.226;2022-08-19T06:31:54;20.10;99.90
4725;DHT22;2376;53.544;10.226;2022-08-19T06:34:21;20.10;99.90
4725;DHT22;2376;53.544;10.226;2022-08-19T06:36:50;20.10;99.90
4725;DHT22;2376;53.544;10.226;2022-08-19T06:39:19;20.20;99.90
4725;DHT22;2376;53.544;10.226;2022-08-19T06:41:50;20.20;99.90
4725;DHT22;2376;53.544;10.226;2022-08-19T06:44:18;20.20;99.90
4725;DHT22;2376;53.544;10.226;2022-08-19T06:46:46;20.20;99.90
4725;DHT22;2376;53.544;10.226;2022-08-19T06:49:14;20.10;99.90
4725;DHT22;2376;53.544;10.226;2022-08-19T06:51:42;20.10;99.90
4725;DHT22;2376;53.544;10.226;2022-08-19T06:54:09;20.10;99.90
4725;DHT22;2376;53.544;10.226;2022-08-19T06:56:39;20.10;99.90
4725;DHT22;2376;53.544;10.226;2022-08-19T06:59:09;20.10;99.90
4725;DHT22;2376;53.544;10.226;2022-08-19T07:01:37;20.00;99.90
4725;DHT22;2376;53.544;10.226;2022-08-19T07:04:07;20.00;99.90
4725;DHT22;2376;53.544;10.226;2022-08-19T07:06:35;20.10;99.90
4725;DHT22;2376;53.544;10.226;2022-08-19T07:09:06;20.10;99.90
4725;DHT22;2376;53.544;10.226;2022-08-19T07:11:33;20.20;99.90
4725;DHT22;2376;53.544;10.226;2022-08-19T07:14:00;20.20;99.90
4725;DHT22;2376;53.544;10.226;2022-08-19T07:16:29;20.20;99.90
4725;DHT22;2376;53.544;10.226;2022-08-19T07:18:57;20.10;99.90
4725;DHT22;2376;53.544;10.226;2022-08-19T07:21:27;20.20;99.90
4725;DHT22;2376;53.544;10.226;2022-08-19T07:23:56;20.20;99.90
4725;DHT22;2376;53.544;10.226;2022-08-19T07:26:25;20.30;99.90
4725;DHT22;2376;53.544;10.226;2022-08-19T07:28:53;20.20;99.90
4725;DHT22;2376;53.544;10.226;2022-08-19T07:31:22;20.30;99.90
4725;DHT22;2376;53.544;10.226;2022-08-19T07:33:53;20.30;99.90
4725;DHT22;2376;53.544;10.226;2022-08-19T07:36:25;20.30;99.90
4725;DHT22;2376;53.544;10.226;2022-08-19T07:39:00;20.30;99.90
4725;DHT22;2376;53.544;10.226;2022-08-19T07:41:30;20.40;99.90
4725;DHT22;2376;53.544;10.226;2022-08-19T07:43:58;20.40;99.90
4725;DHT22;2376;53.544;10.226;2022-08-19T07:46:30;20.40;99.90
4725;DHT22;2376;53.544;10.226;2022-08-19T07:49:01;20.50;99.90
4725;DHT22;2376;53.544;10.226;2022-08-19T07:51:29;20.50;99.90
4725;DHT22;2376;53.544;10.226;2022-08-19T07:53:56;20.60;99.90
4725;DHT22;2376;53.544;10.226;2022-08-19T07:56:23;20.60;99.90
4725;DHT22;2376;53.544;10.226;2022-08-19T07:58:52;20.60;99.90
4725;DHT22;2376;53.544;10.226;2022-08-19T08:01:23;20.60;99.90
4725;DHT22;2376;53.544;10.226;2022-08-19T08:03:54;20.60;99.90
4725;DHT22;2376;53.544;10.226;2022-08-19T08:06:40;20.60;99.90
4725;DHT22;2376;53.544;10.226;2022-08-19T08:09:28;20.70;99.90
4725;DHT22;2376;53.544;10.226;2022-08-19T08:11:57;20.70;99.90
4725;DHT22;2376;53.544;10.226;2022-08-19T08:14:27;20.70;99.90
4725;DHT22;2376;53.544;10.226;2022-08-19T08:16:56;20.80;99.90
4725;DHT22;2376;53.544;10.226;2022-08-19T08:19:25;20.70;99.90
4725;DHT22;2376;53.544;10.226;2022-08-19T08:21:57;20.60;99.90
4725;DHT22;2376;53.544;10.226;2022-08-19T08:24:30;20.60;99.90
4725;DHT22;2376;53.544;10.226;2022-08-19T08:27:00;20.60;99.90
4725;DHT22;2376;53.544;10.226;2022-08-19T08:29:28;20.70;99.90
4725;DHT22;2376;53.544;10.226;2022-08-19T08:31:56;20.70;99.90
4725;DHT22;2376;53.544;10.226;2022-08-19T08:34:24;20.70;99.90
4725;DHT22;2376;53.544;10.226;2022-08-19T08:36:51;20.60;99.90
4725;DHT22;2376;53.544;10.226;2022-08-19T08:39:20;20.60;99.90
4725;DHT22;2376;53.544;10.226;2022-08-19T08:41:54;20.60;99.90
4725;DHT22;2376;53.544;10.226;2022-08-19T08:44:27;20.50;99.90
4725;DHT22;2376;53.544;10.226;2022-08-19T08:46:58;20.50;99.90
4725;DHT22;2376;53.544;10.226;2022-08-19T08:49:30;20.50;99.90
4725;DHT22;2376;53.544;10.226;2022-08-19T08:52:03;20.60;99.90
4725;DHT22;2376;53.544;10.226;2022-08-19T08:54:35;20.60;99.90
4725;DHT22;2376;53.544;10.226;2022-08-19T08:57:07;20.70;99.90
4725;DHT22;2376;53.544;10.226;2022-08-19T08:59:38;20.60;99.90
4725;DHT22;2376;53.544;10.226;2022-08-19T09:02:06;20.70;99.90
4725;DHT22;2376;53.544;10.226;2022-08-19T09:04:34;20.70;99.90
4725;DHT22;2376;53.544;10.226;2022-08-19T09:07:13;20.70;99.90
4725;DHT22;2376;53.544;10.226;2022-08-19T09:09:49;20.70;99.90
4725;DHT22;2376;53.544;10.226;2022-08-19T09:12:25;20.80;99.90
4725;DHT22;2376;53.544;10.226;2022-08-19T09:14:58;20.80;99.90
4725;DHT22;2376;53.544;10.226;2022-08-19T09:17:29;20.70;99.90
4725;DHT22;2376;53.544;10.226;2022-08-19T09:20:00;20.70;99.90
4725;DHT22;2376;53.544;10.226;2022-08-19T09:22:30;20.80;99.90
4725;DHT22;2376;53.544;10.226;2022-08-19T09:24:59;20.70;99.90
4725;DHT22;2376;53.544;10.226;2022-08-19T09:27:27;20.70;99.90
4725;DHT22;2376;53.544;10.226;2022-08-19T09:29:54;20.70;99.90
4725;DHT22;2376;53.544;10.226;2022-08-19T09:32:22;20.70;99.90
4725;DHT22;2376;53.544;10.226;2022-08-19T09:34:49;20.70;99.90
4725;DHT22;2376;53.544;10.226;2022-08-19T09:37:20;20.70;99.90
4725;DHT22;2376;53.544;10.226;2022-08-19T09:39:47;20.70;99.90
4725;DHT22;2376;53.544;10.226;2022-08-19T09:42:15;20.70;99.90
4725;DHT22;2376;53.544;10.226;2022-08-19T09:44:42;20.80;99.90
4725;DHT22;2376;53.544;10.226;2022-08-19T09:47:10;20.70;99.90
4725;DHT22;2376;53.544;10.226;2022-08-19T09:49:38;20.70;99.90
4725;DHT22;2376;53.544;10.226;2022-08-19T09:52:07;20.70;99.90
4725;DHT22;2376;53.544;10.226;2022-08-19T09:54:34;20.70;99.90
4725;DHT22;2376;53.544;10.226;2022-08-19T09:57:02;20.60;99.90
4725;DHT22;2376;53.544;10.226;2022-08-19T09:59:31;20.70;99.90
4725;DHT22;2376;53.544;10.226;2022-08-19T10:01:57;20.70;99.90
4725;DHT22;2376;53.544;10.226;2022-08-19T10:04:26;20.70;99.90
4725;DHT22;2376;53.544;10.226;2022-08-19T10:07:13;20.80;99.90
4725;DHT22;2376;53.544;10.226;2022-08-19T10:09:41;20.70;99.90
4725;DHT22;2376;53.544;10.226;2022-08-19T10:12:08;20.70;99.90
4725;DHT22;2376;53.544;10.226;2022-08-19T10:14:37;20.70;99.90
4725;DHT22;2376;53.544;10.226;2022-08-19T10:17:04;20.60;99.90
4725;DHT22;2376;53.544;10.226;2022-08-19T10:19:31;20.60;99.90
4725;DHT22;2376;53.544;10.226;2022-08-19T10:22:03;20.80;99.90
4725;DHT22;2376;53.544;10.226;2022-08-19T10:24:31;20.80;99.90
4725;DHT22;2376;53.544;10.226;2022-08-19T10:26:59;20.80;99.90
4725;DHT22;2376;53.544;10.226;2022-08-19T10:29:29;20.80;99.90
4725;DHT22;2376;53.544;10.226;2022-08-19T10:31:59;21.00;99.90
4725;DHT22;2376;53.544;10.226;2022-08-19T10:34:27;21.00;99.90
4725;DHT22;2376;53.544;10.226;2022-08-19T10:36:55;21.00;99.90
4725;DHT22;2376;53.544;10.226;2022-08-19T10:39:22;21.10;99.90
4725;DHT22;2376;53.544;10.226;2022-08-19T10:41:49;21.00;99.90
4725;DHT22;2376;53.544;10.226;2022-08-19T10:44:16;21.10;99.90
4725;DHT22;2376;53.544;10.226;2022-08-19T10:46:45;21.10;99.90
4725;DHT22;2376;53.544;10.226;2022-08-19T10:49:13;21.10;99.90
4725;DHT22;2376;53.544;10.226;2022-08-19T10:51:41;21.10;99.90
4725;DHT22;2376;53.544;10.226;2022-08-19T10:54:26;21.00;99.90
4725;DHT22;2376;53.544;10.226;2022-08-19T10:57:14;21.10;99.90
4725;DHT22;2376;53.544;10.226;2022-08-19T10:59:40;21.10;99.90
4725;DHT22;2376;53.544;10.226;2022-08-19T11:02:09;21.20;99.90
4725;DHT22;2376;53.544;10.226;2022-08-19T11:04:40;21.30;99.90
4725;DHT22;2376;53.544;10.226;2022-08-19T11:07:09;21.40;99.90
4725;DHT22;2376;53.544;10.226;2022-08-19T11:09:40;21.30;99.90
4725;DHT22;2376;53.544;10.226;2022-08-19T11:12:07;21.40;99.90
4725;DHT22;2376;53.544;10.226;2022-08-19T11:14:35;21.40;99.90
4725;DHT22;2376;53.544;10.226;2022-08-19T11:17:03;21.50;99.90
4725;DHT22;2376;53.544;10.226;2022-08-19T11:19:31;21.50;99.90
4725;DHT22;2376;53.544;10.226;2022-08-19T11:22:00;21.60;99.90
4725;DHT22;2376;53.544;10.226;2022-08-19T11:24:29;21.60;99.90
4725;DHT22;2376;53.544;10.226;2022-08-19T11:27:01;21.60;99.90
4725;DHT22;2376;53.544;10.226;2022-08-19T11:29:29;21.60;99.90
4725;DHT22;2376;53.544;10.226;2022-08-19T11:31:57;21.60;99.90
4725;DHT22;2376;53.544;10.226;2022-08-19T11:34:26;21.50;99.90
4725;DHT22;2376;53.544;10.226;2022-08-19T11:36:54;21.50;99.90
4725;DHT22;2376;53.544;10.226;2022-08-19T11:39:26;21.60;99.90
4725;DHT22;2376;53.544;10.226;2022-08-19T11:41:53;21.60;99.90
4725;DHT22;2376;53.544;10.226;2022-08-19T11:44:20;21.60;99.90
4725;DHT22;2376;53.544;10.226;2022-08-19T11:46:47;21.70;99.90
4725;DHT22;2376;53.544;10.226;2022-08-19T11:49:16;21.70;99.90
4725;DHT22;2376;53.544;10.226;2022-08-19T11:51:44;21.70;99.90
4725;DHT22;2376;53.544;10.226;2022-08-19T11:54:14;21.80;99.90
4725;DHT22;2376;53.544;10.226;2022-08-19T11:56:45;21.80;99.90
4725;DHT22;2376;53.544;10.226;2022-08-19T11:59:14;21.80;99.90
4725;DHT22;2376;53.544;10.226;2022-08-19T12:01:42;21.80;99.90
4725;DHT22;2376;53.544;10.226;2022-08-19T12:04:10;21.80;99.90
4725;DHT22;2376;53.544;10.226;2022-08-19T12:06:39;21.90;99.90
4725;DHT22;2376;53.544;10.226;2022-08-19T12:09:09;21.90;99.90
4725;DHT22;2376;53.544;10.226;2022-08-19T12:11:39;21.90;99.90
4725;DHT22;2376;53.544;10.226;2022-08-19T12:14:10;22.00;99.90
4725;DHT22;2376;53.544;10.226;2022-08-19T12:16:39;22.00;99.90
4725;DHT22;2376;53.544;10.226;2022-08-19T12:19:07;22.10;99.90
4725;DHT22;2376;53.544;10.226;2022-08-19T12:21:35;22.10;99.90
4725;DHT22;2376;53.544;10.226;2022-08-19T12:24:05;22.10;99.90
4725;DHT22;2376;53.544;10.226;2022-08-19T12:26:32;22.20;99.90
4725;DHT22;2376;53.544;10.226;2022-08-19T12:28:59;22.20;99.90
4725;DHT22;2376;53.544;10.226;2022-08-19T12:31:28;22.20;99.90
4725;DHT22;2376;53.544;10.226;2022-08-19T12:33:55;22.20;99.90
4725;DHT22;2376;53.544;10.226;2022-08-19T12:36:22;22.10;99.90
4725;DHT22;2376;53.544;10.226;2022-08-19T12:38:51;22.20;99.90
4725;DHT22;2376;53.544;10.226;2022-08-19T12:41:19;22.20;99.90
4725;DHT22;2376;53.544;10.226;2022-08-19T12:43:47;22.10;99.90
4725;DHT22;2376;53.544;10.226;2022-08-19T12:46:15;22.10;99.90
4725;DHT22;2376;53.544;10.226;2022-08-19T12:48:44;22.20;99.90
4725;DHT22;2376;53.544;10.226;2022-08-19T12:51:14;22.20;99.90
4725;DHT22;2376;53.544;10.226;2022-08-19T12:53:41;22.20;99.90
4725;DHT22;2376;53.544;10.226;2022-08-19T12:56:09;22.30;99.90
4725;DHT22;2376;53.544;10.226;2022-08-19T12:58:36;22.30;99.90
4725;DHT22;2376;53.544;10.226;2022-08-19T13:01:07;22.40;99.90
4725;DHT22;2376;53.544;10.226;2022-08-19T13:03:36;22.50;99.90
4725;DHT22;2376;53.544;10.226;2022-08-19T13:06:06;22.60;99.90
4725;DHT22;2376;53.544;10.226;2022-08-19T13:08:33;22.70;99.90
4725;DHT22;2376;53.544;10.226;2022-08-19T13:11:07;22.90;99.90
4725;DHT22;2376;53.544;10.226;2022-08-19T13:13:37;23.10;99.90
4725;DHT22;2376;53.544;10.226;2022-08-19T13:16:06;23.30;99.90
4725;DHT22;2376;53.544;10.226;2022-08-19T13:18:33;23.40;99.90
4725;DHT22;2376;53.544;10.226;2022-08-19T13:21:02;23.60;99.90
4725;DHT22;2376;53.544;10.226;2022-08-19T13:23:32;23.60;99.90
4725;DHT22;2376;53.544;10.226;2022-08-19T13:26:00;23.70;99.90
4725;DHT22;2376;53.544;10.226;2022-08-19T13:28:28;23.70;99.90
4725;DHT22;2376;53.544;10.226;2022-08-19T13:31:17;23.70;99.90
4725;DHT22;2376;53.544;10.226;2022-08-19T13:34:03;23.80;99.90
4725;DHT22;2376;53.544;10.226;2022-08-19T13:36:31;23.90;99.90
4725;DHT22;2376;53.544;10.226;2022-08-19T13:38:59;23.90;99.90
4725;DHT22;2376;53.544;10.226;2022-08-19T13:41:27;23.90;99.90
4725;DHT22;2376;53.544;10.226;2022-08-19T13:43:54;23.90;99.90
4725;DHT22;2376;53.544;10.226;2022-08-19T13:46:21;23.80;99.90
4725;DHT22;2376;53.544;10.226;2022-08-19T13:48:48;23.90;99.90
4725;DHT22;2376;53.544;10.226;2022-08-19T13:51:16;23.90;99.90
4725;DHT22;2376;53.544;10.226;2022-08-19T13:53:44;23.80;99.90
4725;DHT22;2376;53.544;10.226;2022-08-19T13:56:13;23.80;99.90
4725;DHT22;2376;53.544;10.226;2022-08-19T13:58:40;23.80;99.90
4725;DHT22;2376;53.544;10.226;2022-08-19T14:01:08;23.90;99.90
4725;DHT22;2376;53.544;10.226;2022-08-19T14:03:35;24.00;99.90
4725;DHT22;2376;53.544;10.226;2022-08-19T14:06:03;23.90;99.90
4725;DHT22;2376;53.544;10.226;2022-08-19T14:08:30;23.90;99.90
4725;DHT22;2376;53.544;10.226;2022-08-19T14:10:58;24.00;99.90
4725;DHT22;2376;53.544;10.226;2022-08-19T14:13:26;24.00;99.90
4725;DHT22;2376;53.544;10.226;2022-08-19T14:15:53;24.10;99.90
4725;DHT22;2376;53.544;10.226;2022-08-19T14:18:20;24.00;99.90
4725;DHT22;2376;53.544;10.226;2022-08-19T14:20:50;24.00;99.90
4725;DHT22;2376;53.544;10.226;2022-08-19T14:23:17;24.00;99.90
4725;DHT22;2376;53.544;10.226;2022-08-19T14:25:45;23.90;99.90
4725;DHT22;2376;53.544;10.226;2022-08-19T14:28:13;23.90;99.90
4725;DHT22;2376;53.544;10.226;2022-08-19T14:30:41;23.80;99.90
4725;DHT22;2376;53.544;10.226;2022-08-19T14:33:10;23.90;99.90
4725;DHT22;2376;53.544;10.226;2022-08-19T14:35:38;24.00;99.90
4725;DHT22;2376;53.544;10.226;2022-08-19T14:38:16;24.10;99.90
4725;DHT22;2376;53.544;10.226;2022-08-19T14:40:44;24.20;99.90
4725;DHT22;2376;53.544;10.226;2022-08-19T14:43:12;24.10;99.90
4725;DHT22;2376;53.544;10.226;2022-08-19T14:45:40;24.00;99.90
4725;DHT22;2376;53.544;10.226;2022-08-19T14:48:08;23.90;99.90
4725;DHT22;2376;53.544;10.226;2022-08-19T14:50:36;23.90;99.90
4725;DHT22;2376;53.544;10.226;2022-08-19T14:53:05;23.90;99.90
4725;DHT22;2376;53.544;10.226;2022-08-19T14:55:33;23.80;99.90
4725;DHT22;2376;53.544;10.226;2022-08-19T14:58:00;23.90;99.90
4725;DHT22;2376;53.544;10.226;2022-08-19T15:00:27;23.90;99.90
4725;DHT22;2376;53.544;10.226;2022-08-19T15:02:56;23.90;99.90
4725;DHT22;2376;53.544;10.226;2022-08-19T15:05:23;24.00;99.90
4725;DHT22;2376;53.544;10.226;2022-08-19T15:07:49;24.00;99.90
4725;DHT22;2376;53.544;10.226;2022-08-19T15:10:16;24.10;99.90
4725;DHT22;2376;53.544;10.226;2022-08-19T15:12:45;24.00;99.90
4725;DHT22;2376;53.544;10.226;2022-08-19T15:15:14;24.00;99.90
4725;DHT22;2376;53.544;10.226;2022-08-19T15:17:43;23.90;99.90
4725;DHT22;2376;53.544;10.226;2022-08-19T15:20:15;23.90;99.90
4725;DHT22;2376;53.544;10.226;2022-08-19T15:22:42;23.90;99.90
4725;DHT22;2376;53.544;10.226;2022-08-19T15:25:13;23.90;99.90
4725;DHT22;2376;53.544;10.226;2022-08-19T15:27:41;24.00;99.90
4725;DHT22;2376;53.544;10.226;2022-08-19T15:30:10;23.90;99.90
4725;DHT22;2376;53.544;10.226;2022-08-19T15:32:38;23.80;99.90
4725;DHT22;2376;53.544;10.226;2022-08-19T15:35:06;23.90;99.90
4725;DHT22;2376;53.544;10.226;2022-08-19T15:37:36;23.90;99.90
4725;DHT22;2376;53.544;10.226;2022-08-19T15:40:04;24.00;99.90
4725;DHT22;2376;53.544;10.226;2022-08-19T15:42:31;24.00;99.90
4725;DHT22;2376;53.544;10.226;2022-08-19T15:44:58;24.10;99.90
4725;DHT22;2376;53.544;10.226;2022-08-19T15:47:28;24.20;99.90
4725;DHT22;2376;53.544;10.226;2022-08-19T15:49:55;24.20;99.90
4725;DHT22;2376;53.544;10.226;2022-08-19T15:52:24;24.20;99.90
4725;DHT22;2376;53.544;10.226;2022-08-19T15:54:53;24.20;99.90
4725;DHT22;2376;53.544;10.226;2022-08-19T15:57:20;24.30;99.90